createdAt,value
2018-06-29T15:35:03.957Z,5.03
2018-06-29T15:37:34.523Z,4.90
2018-06-29T15:40:05.065Z,4.67
2018-06-29T15:42:36.177Z,4.83
2018-06-29T15:45:07.038Z,7.83
2018-06-29T15:47:38.565Z,5.57
2018-06-29T15:50:12.799Z,4.77
2018-06-29T15:52:43.352Z,4.90
2018-06-29T15:55:14.029Z,4.70
2018-06-29T15:57:50.363Z,4.30
2018-06-29T16:00:22.130Z,4.93
2018-06-29T16:02:52.557Z,4.57
2018-06-29T16:05:23.102Z,4.57
2018-06-29T16:07:53.883Z,4.83
2018-06-29T16:10:24.595Z,4.13
2018-06-29T16:12:55.401Z,4.10
2018-06-29T16:15:26.469Z,4.37
2018-06-29T16:17:57.279Z,4.43
2018-06-29T16:20:28.019Z,4.00
2018-06-29T16:22:58.973Z,6.03
2018-06-29T16:25:30.741Z,5.00
2018-06-29T16:28:02.736Z,4.30
2018-06-29T16:30:35.949Z,4.80
2018-06-29T16:33:07.400Z,4.40
2018-06-29T16:35:45.019Z,4.80
2018-06-29T16:38:31.661Z,4.13
2018-06-29T16:41:02.150Z,4.10
2018-06-29T16:46:24.500Z,4.60
2018-06-29T16:49:05.591Z,4.27
2018-06-29T16:51:47.863Z,4.47
2018-06-29T16:54:18.732Z,4.73
2018-06-29T16:56:56.201Z,4.03
2018-06-29T16:59:31.829Z,4.40
2018-06-29T17:02:03.730Z,4.43
2018-06-29T17:04:45.836Z,4.90
2018-06-29T17:10:25.177Z,5.10
2018-06-29T17:13:04.764Z,4.40
2018-06-29T17:15:46.505Z,4.30
2018-06-29T17:25:39.739Z,3.93
2018-06-29T17:28:11.092Z,5.90
2018-06-29T17:30:44.201Z,5.10
2018-06-29T17:36:21.694Z,4.53
2018-06-29T17:39:08.462Z,4.60
2018-06-29T17:44:34.869Z,4.50
2018-06-29T17:47:08.246Z,5.53
2018-06-29T17:49:46.077Z,6.17
2018-06-29T17:52:19.635Z,6.50
2018-06-29T17:54:51.797Z,5.50
2018-06-29T17:57:22.527Z,4.83
2018-06-29T17:59:53.954Z,4.87
2018-06-29T18:05:14.605Z,4.80
2018-06-29T18:07:55.798Z,4.57
2018-06-29T18:10:32.269Z,4.37
2018-06-29T18:22:21.013Z,4.80
2018-06-29T18:25:11.961Z,4.40
2018-06-29T18:27:59.300Z,4.43
2018-06-29T18:39:37.129Z,5.10
2018-06-29T19:03:51.852Z,7.63
2018-06-29T19:21:36.120Z,7.67
2018-06-29T19:27:04.983Z,5.87
2018-06-29T19:35:21.347Z,6.40
2018-06-29T20:22:35.120Z,5.97
2018-06-29T20:25:17.934Z,6.67
2018-06-29T21:36:05.520Z,7.50
2018-06-29T21:39:47.110Z,8.07
2018-06-29T21:48:41.637Z,7.70
2018-06-29T22:03:14.165Z,8.50
